sensor_id;sensor_type;location;lat;lon;timestamp;temperature;humidity
21104;DHT22;10710;53.398;-1.514;2023-06-14T00:00:57;15.60;99.90
21104;DHT22;10710;53.398;-1.514;2023-06-14T00:03:43;15.60;99.90
21104;DHT22;10710;53.398;-1.514;2023-06-14T00:06:31;15.70;99.90
21104;DHT22;10710;53.398;-1.514;2023-06-14T00:09:18;15.50;99.90
21104;DHT22;10710;53.398;-1.514;2023-06-14T00:12:03;15.50;99.90
21104;DHT22;10710;53.398;-1.514;2023-06-14T00:14:47;15.50;99.90
21104;DHT22;10710;53.398;-1.514;2023-06-14T00:17:31;15.60;99.90
21104;DHT22;10710;53.398;-1.514;2023-06-14T00:20:16;15.50;99.90
21104;DHT22;10710;53.398;-1.514;2023-06-14T00:23:01;15.40;99.90
21104;DHT22;10710;53.398;-1.514;2023-06-14T00:25:46;15.40;99.90
21104;DHT22;10710;53.398;-1.514;2023-06-14T00:28:30;15.10;99.90
21104;DHT22;10710;53.398;-1.514;2023-06-14T00:31:15;15.10;99.90
21104;DHT22;10710;53.398;-1.514;2023-06-14T00:34:00;14.90;99.90
21104;DHT22;10710;53.398;-1.514;2023-06-14T00:36:44;15.00;99.90
21104;DHT22;10710;53.398;-1.514;2023-06-14T00:39:29;15.20;99.90
21104;DHT22;10710;53.398;-1.514;2023-06-14T00:42:26;15.30;99.90
21104;DHT22;10710;53.398;-1.514;2023-06-14T00:45:10;15.30;99.90
21104;DHT22;10710;53.398;-1.514;2023-06-14T00:47:56;15.40;99.90
21104;DHT22;10710;53.398;-1.514;2023-06-14T00:50:40;15.40;99.90
21104;DHT22;10710;53.398;-1.514;2023-06-14T00:53:25;15.20;99.90
21104;DHT22;10710;53.398;-1.514;2023-06-14T00:56:10;15.10;99.90
21104;DHT22;10710;53.398;-1.514;2023-06-14T00:58:58;14.90;99.90
21104;DHT22;10710;53.398;-1.514;2023-06-14T01:01:42;14.70;99.90
21104;DHT22;10710;53.398;-1.514;2023-06-14T01:04:27;14.60;99.90
21104;DHT22;10710;53.398;-1.514;2023-06-14T01:13:20;14.30;99.90
21104;DHT22;10710;53.398;-1.514;2023-06-14T01:16:06;14.10;99.90
21104;DHT22;10710;53.398;-1.514;2023-06-14T01:18:53;13.90;99.90
21104;DHT22;10710;53.398;-1.514;2023-06-14T01:21:40;13.90;99.90
21104;DHT22;10710;53.398;-1.514;2023-06-14T01:24:25;14.10;99.90
21104;DHT22;10710;53.398;-1.514;2023-06-14T01:27:16;14.30;99.90
21104;DHT22;10710;53.398;-1.514;2023-06-14T01:30:01;14.20;99.90
21104;DHT22;10710;53.398;-1.514;2023-06-14T01:32:47;13.90;99.90
21104;DHT22;10710;53.398;-1.514;2023-06-14T01:35:32;13.80;99.90
21104;DHT22;10710;53.398;-1.514;2023-06-14T01:38:19;13.60;99.90
21104;DHT22;10710;53.398;-1.514;2023-06-14T01:41:04;13.50;99.90
21104;DHT22;10710;53.398;-1.514;2023-06-14T01:43:50;13.40;99.90
21104;DHT22;10710;53.398;-1.514;2023-06-14T01:46:34;13.70;99.90
21104;DHT22;10710;53.398;-1.514;2023-06-14T01:49:20;13.90;99.90
21104;DHT22;10710;53.398;-1.514;2023-06-14T01:52:04;13.90;99.90
21104;DHT22;10710;53.398;-1.514;2023-06-14T01:54:50;14.10;99.90
21104;DHT22;10710;53.398;-1.514;2023-06-14T01:57:35;14.00;99.90
21104;DHT22;10710;53.398;-1.514;2023-06-14T02:00:20;13.90;99.90
21104;DHT22;10710;53.398;-1.514;2023-06-14T02:03:05;13.80;99.90
21104;DHT22;10710;53.398;-1.514;2023-06-14T02:05:49;13.80;99.90
21104;DHT22;10710;53.398;-1.514;2023-06-14T02:08:34;13.60;99.90
21104;DHT22;10710;53.398;-1.514;2023-06-14T02:11:18;13.70;99.90
21104;DHT22;10710;53.398;-1.514;2023-06-14T02:14:03;13.70;99.90
21104;DHT22;10710;53.398;-1.514;2023-06-14T02:16:48;13.80;99.90
21104;DHT22;10710;53.398;-1.514;2023-06-14T02:19:35;13.80;99.90
21104;DHT22;10710;53.398;-1.514;2023-06-14T02:22:19;13.80;99.90
21104;DHT22;10710;53.398;-1.514;2023-06-14T02:25:06;13.80;99.90
21104;DHT22;10710;53.398;-1.514;2023-06-14T02:27:51;13.70;99.90
21104;DHT22;10710;53.398;-1.514;2023-06-14T02:30:35;13.70;99.90
21104;DHT22;10710;53.398;-1.514;2023-06-14T02:33:19;13.70;99.90
21104;DHT22;10710;53.398;-1.514;2023-06-14T02:36:04;13.60;99.90
21104;DHT22;10710;53.398;-1.514;2023-06-14T02:38:50;13.70;99.90
21104;DHT22;10710;53.398;-1.514;2023-06-14T02:41:34;13.50;99.90
21104;DHT22;10710;53.398;-1.514;2023-06-14T02:44:19;13.50;99.90
21104;DHT22;10710;53.398;-1.514;2023-06-14T02:47:06;13.40;99.90
21104;DHT22;10710;53.398;-1.514;2023-06-14T02:49:51;13.10;99.90
21104;DHT22;10710;53.398;-1.514;2023-06-14T02:52:35;13.00;99.90
21104;DHT22;10710;53.398;-1.514;2023-06-14T02:55:19;13.00;99.90
21104;DHT22;10710;53.398;-1.514;2023-06-14T02:58:05;13.10;99.90
21104;DHT22;10710;53.398;-1.514;2023-06-14T03:00:49;13.20;99.90
21104;DHT22;10710;53.398;-1.514;2023-06-14T03:03:34;13.10;99.90
21104;DHT22;10710;53.398;-1.514;2023-06-14T03:06:18;13.00;99.90
21104;DHT22;10710;53.398;-1.514;2023-06-14T03:09:03;13.00;99.90
21104;DHT22;10710;53.398;-1.514;2023-06-14T03:11:53;13.10;99.90
21104;DHT22;10710;53.398;-1.514;2023-06-14T03:14:37;13.10;99.90
21104;DHT22;10710;53.398;-1.514;2023-06-14T03:17:22;13.10;99.90
21104;DHT22;10710;53.398;-1.514;2023-06-14T03:20:09;13.20;99.90
21104;DHT22;10710;53.398;-1.514;2023-06-14T03:22:54;13.00;99.90
21104;DHT22;10710;53.398;-1.514;2023-06-14T03:25:39;13.00;99.90
21104;DHT22;10710;53.398;-1.514;2023-06-14T03:28:26;13.00;99.90
21104;DHT22;10710;53.398;-1.514;2023-06-14T03:31:10;13.10;99.90
21104;DHT22;10710;53.398;-1.514;2023-06-14T03:33:55;13.10;99.90
21104;DHT22;10710;53.398;-1.514;2023-06-14T03:36:39;13.00;99.90
21104;DHT22;10710;53.398;-1.514;2023-06-14T03:39:23;13.10;99.90
21104;DHT22;10710;53.398;-1.514;2023-06-14T03:42:08;13.10;99.90
21104;DHT22;10710;53.398;-1.514;2023-06-14T03:44:52;13.10;99.90
21104;DHT22;10710;53.398;-1.514;2023-06-14T03:47:37;13.20;99.90
21104;DHT22;10710;53.398;-1.514;2023-06-14T03:50:21;12.90;99.90
21104;DHT22;10710;53.398;-1.514;2023-06-14T03:53:06;12.90;99.90
21104;DHT22;10710;53.398;-1.514;2023-06-14T03:55:51;12.70;99.90
21104;DHT22;10710;53.398;-1.514;2023-06-14T03:58:38;12.80;99.90
21104;DHT22;10710;53.398;-1.514;2023-06-14T04:01:23;12.90;99.90
21104;DHT22;10710;53.398;-1.514;2023-06-14T04:04:11;13.00;99.90
21104;DHT22;10710;53.398;-1.514;2023-06-14T04:06:56;13.00;99.90
21104;DHT22;10710;53.398;-1.514;2023-06-14T04:09:42;12.90;99.90
21104;DHT22;10710;53.398;-1.514;2023-06-14T04:12:27;13.00;99.90
21104;DHT22;10710;53.398;-1.514;2023-06-14T04:15:11;13.10;99.90
21104;DHT22;10710;53.398;-1.514;2023-06-14T04:17:56;13.10;99.90
21104;DHT22;10710;53.398;-1.514;2023-06-14T04:20:41;13.10;99.90
21104;DHT22;10710;53.398;-1.514;2023-06-14T04:23:26;13.20;99.90
21104;DHT22;10710;53.398;-1.514;2023-06-14T04:26:12;13.20;99.90
21104;DHT22;10710;53.398;-1.514;2023-06-14T04:28:56;13.10;99.90
21104;DHT22;10710;53.398;-1.514;2023-06-14T04:31:46;13.10;99.90
21104;DHT22;10710;53.398;-1.514;2023-06-14T04:34:31;13.20;99.90
21104;DHT22;10710;53.398;-1.514;2023-06-14T04:37:16;13.30;99.90
21104;DHT22;10710;53.398;-1.514;2023-06-14T04:40:01;13.30;99.90
21104;DHT22;10710;53.398;-1.514;2023-06-14T04:42:48;13.20;99.90
21104;DHT22;10710;53.398;-1.514;2023-06-14T04:45:35;13.30;99.90
21104;DHT22;10710;53.398;-1.514;2023-06-14T04:48:21;13.30;99.90
21104;DHT22;10710;53.398;-1.514;2023-06-14T04:51:09;13.30;99.90
21104;DHT22;10710;53.398;-1.514;2023-06-14T04:53:54;13.30;99.90
21104;DHT22;10710;53.398;-1.514;2023-06-14T04:56:41;13.40;99.90
21104;DHT22;10710;53.398;-1.514;2023-06-14T04:59:30;13.30;99.90
21104;DHT22;10710;53.398;-1.514;2023-06-14T05:02:17;13.30;99.90
21104;DHT22;10710;53.398;-1.514;2023-06-14T05:05:02;13.50;99.90
21104;DHT22;10710;53.398;-1.514;2023-06-14T05:07:46;13.70;99.90
21104;DHT22;10710;53.398;-1.514;2023-06-14T05:10:31;13.80;99.90
21104;DHT22;10710;53.398;-1.514;2023-06-14T05:13:16;13.80;99.90
21104;DHT22;10710;53.398;-1.514;2023-06-14T05:16:01;13.80;99.90
21104;DHT22;10710;53.398;-1.514;2023-06-14T05:18:46;13.90;99.90
21104;DHT22;10710;53.398;-1.514;2023-06-14T05:21:31;13.90;99.90
21104;DHT22;10710;53.398;-1.514;2023-06-14T05:24:17;13.80;99.90
21104;DHT22;10710;53.398;-1.514;2023-06-14T05:27:02;13.90;99.90
21104;DHT22;10710;53.398;-1.514;2023-06-14T05:29:46;14.00;99.90
21104;DHT22;10710;53.398;-1.514;2023-06-14T05:32:31;14.20;99.90
21104;DHT22;10710;53.398;-1.514;2023-06-14T05:35:16;14.20;99.90
21104;DHT22;10710;53.398;-1.514;2023-06-14T05:38:00;14.30;99.90
21104;DHT22;10710;53.398;-1.514;2023-06-14T05:40:45;14.40;99.90
21104;DHT22;10710;53.398;-1.514;2023-06-14T05:43:32;14.60;99.90
21104;DHT22;10710;53.398;-1.514;2023-06-14T05:46:17;14.70;99.90
21104;DHT22;10710;53.398;-1.514;2023-06-14T05:49:06;14.80;99.90
21104;DHT22;10710;53.398;-1.514;2023-06-14T05:51:50;14.90;99.90
21104;DHT22;10710;53.398;-1.514;2023-06-14T05:54:35;14.90;99.90
21104;DHT22;10710;53.398;-1.514;2023-06-14T05:57:20;15.00;99.90
21104;DHT22;10710;53.398;-1.514;2023-06-14T06:00:06;15.20;99.90
21104;DHT22;10710;53.398;-1.514;2023-06-14T06:02:55;15.30;99.90
21104;DHT22;10710;53.398;-1.514;2023-06-14T06:05:41;15.40;99.90
21104;DHT22;10710;53.398;-1.514;2023-06-14T06:08:26;15.50;99.90
21104;DHT22;10710;53.398;-1.514;2023-06-14T06:11:10;15.70;99.90
21104;DHT22;10710;53.398;-1.514;2023-06-14T06:13:55;15.80;99.90
21104;DHT22;10710;53.398;-1.514;2023-06-14T06:16:40;15.80;99.90
21104;DHT22;10710;53.398;-1.514;2023-06-14T06:19:24;15.90;99.90
21104;DHT22;10710;53.398;-1.514;2023-06-14T06:22:09;16.10;99.90
21104;DHT22;10710;53.398;-1.514;2023-06-14T06:24:54;16.20;99.90
21104;DHT22;10710;53.398;-1.514;2023-06-14T06:27:38;16.30;99.90
21104;DHT22;10710;53.398;-1.514;2023-06-14T06:30:26;16.30;99.90
21104;DHT22;10710;53.398;-1.514;2023-06-14T06:33:10;16.50;99.90
21104;DHT22;10710;53.398;-1.514;2023-06-14T06:35:54;16.60;99.90
21104;DHT22;10710;53.398;-1.514;2023-06-14T06:38:38;16.70;99.90
21104;DHT22;10710;53.398;-1.514;2023-06-14T06:41:23;16.90;99.90
21104;DHT22;10710;53.398;-1.514;2023-06-14T06:44:07;16.90;99.90
21104;DHT22;10710;53.398;-1.514;2023-06-14T06:46:54;17.00;99.90
21104;DHT22;10710;53.398;-1.514;2023-06-14T06:49:38;17.10;99.90
21104;DHT22;10710;53.398;-1.514;2023-06-14T06:52:23;17.10;99.90
21104;DHT22;10710;53.398;-1.514;2023-06-14T06:55:08;17.20;99.90
21104;DHT22;10710;53.398;-1.514;2023-06-14T06:57:55;17.20;99.90
21104;DHT22;10710;53.398;-1.514;2023-06-14T07:00:39;17.30;99.90
21104;DHT22;10710;53.398;-1.514;2023-06-14T07:03:24;17.30;99.90
21104;DHT22;10710;53.398;-1.514;2023-06-14T07:06:08;17.30;99.90
21104;DHT22;10710;53.398;-1.514;2023-06-14T07:08:53;17.30;99.90
21104;DHT22;10710;53.398;-1.514;2023-06-14T07:11:37;17.40;99.90
21104;DHT22;10710;53.398;-1.514;2023-06-14T07:14:22;17.50;99.90
21104;DHT22;10710;53.398;-1.514;2023-06-14T07:17:07;17.70;99.90
21104;DHT22;10710;53.398;-1.514;2023-06-14T07:19:51;17.70;99.90
21104;DHT22;10710;53.398;-1.514;2023-06-14T07:22:35;17.80;99.90
21104;DHT22;10710;53.398;-1.514;2023-06-14T07:25:19;17.80;99.90
21104;DHT22;10710;53.398;-1.514;2023-06-14T07:28:04;17.90;99.90
21104;DHT22;10710;53.398;-1.514;2023-06-14T07:30:48;17.90;99.90
21104;DHT22;10710;53.398;-1.514;2023-06-14T07:33:33;18.00;99.90
21104;DHT22;10710;53.398;-1.514;2023-06-14T07:36:17;17.80;99.90
21104;DHT22;10710;53.398;-1.514;2023-06-14T07:39:02;18.00;99.90
21104;DHT22;10710;53.398;-1.514;2023-06-14T07:41:47;18.10;99.90
21104;DHT22;10710;53.398;-1.514;2023-06-14T07:44:31;18.10;99.90
21104;DHT22;10710;53.398;-1.514;2023-06-14T07:47:16;18.40;99.90
21104;DHT22;10710;53.398;-1.514;2023-06-14T07:50:00;18.40;99.90
21104;DHT22;10710;53.398;-1.514;2023-06-14T07:52:45;18.40;99.90
21104;DHT22;10710;53.398;-1.514;2023-06-14T07:55:29;18.40;99.90
21104;DHT22;10710;53.398;-1.514;2023-06-14T10:23:20;22.70;99.90
21104;DHT22;10710;53.398;-1.514;2023-06-14T10:30:02;23.00;99.90
21104;DHT22;10710;53.398;-1.514;2023-06-14T10:33:19;22.90;99.90
21104;DHT22;10710;53.398;-1.514;2023-06-14T10:36:26;23.10;99.90
21104;DHT22;10710;53.398;-1.514;2023-06-14T10:39:15;23.10;99.90
21104;DHT22;10710;53.398;-1.514;2023-06-14T10:42:01;23.20;99.90
21104;DHT22;10710;53.398;-1.514;2023-06-14T10:44:52;23.30;99.90
21104;DHT22;10710;53.398;-1.514;2023-06-14T10:47:37;23.40;99.90
21104;DHT22;10710;53.398;-1.514;2023-06-14T10:50:31;23.40;99.90
21104;DHT22;10710;53.398;-1.514;2023-06-14T10:53:23;23.40;99.90
21104;DHT22;10710;53.398;-1.514;2023-06-14T10:56:08;23.50;99.90
21104;DHT22;10710;53.398;-1.514;2023-06-14T10:58:53;23.50;99.90
21104;DHT22;10710;53.398;-1.514;2023-06-14T11:04:47;23.60;99.90
21104;DHT22;10710;53.398;-1.514;2023-06-14T11:10:47;23.50;99.90
21104;DHT22;10710;53.398;-1.514;2023-06-14T11:13:32;23.70;99.90
21104;DHT22;10710;53.398;-1.514;2023-06-14T11:16:17;23.80;99.90
21104;DHT22;10710;53.398;-1.514;2023-06-14T11:19:03;23.80;99.90
21104;DHT22;10710;53.398;-1.514;2023-06-14T11:21:48;23.70;99.90
21104;DHT22;10710;53.398;-1.514;2023-06-14T11:24:33;23.80;99.90
21104;DHT22;10710;53.398;-1.514;2023-06-14T11:27:18;24.00;99.90
21104;DHT22;10710;53.398;-1.514;2023-06-14T11:30:02;24.00;99.90
21104;DHT22;10710;53.398;-1.514;2023-06-14T11:32:49;24.00;99.90
21104;DHT22;10710;53.398;-1.514;2023-06-14T11:35:34;24.20;99.90
21104;DHT22;10710;53.398;-1.514;2023-06-14T11:38:19;24.20;99.90
21104;DHT22;10710;53.398;-1.514;2023-06-14T11:41:03;24.20;99.90
21104;DHT22;10710;53.398;-1.514;2023-06-14T11:43:47;24.20;99.90
21104;DHT22;10710;53.398;-1.514;2023-06-14T11:46:31;24.20;99.90
21104;DHT22;10710;53.398;-1.514;2023-06-14T11:49:16;24.30;99.90
21104;DHT22;10710;53.398;-1.514;2023-06-14T11:52:00;24.40;99.90
21104;DHT22;10710;53.398;-1.514;2023-06-14T11:54:47;24.40;99.90
21104;DHT22;10710;53.398;-1.514;2023-06-14T11:57:35;24.50;99.90
21104;DHT22;10710;53.398;-1.514;2023-06-14T12:00:27;24.60;99.90
21104;DHT22;10710;53.398;-1.514;2023-06-14T12:03:13;24.60;99.90
21104;DHT22;10710;53.398;-1.514;2023-06-14T12:06:05;24.50;99.90
21104;DHT22;10710;53.398;-1.514;2023-06-14T12:08:51;24.50;99.90
21104;DHT22;10710;53.398;-1.514;2023-06-14T12:11:39;24.60;99.90
21104;DHT22;10710;53.398;-1.514;2023-06-14T12:14:28;24.70;99.90
21104;DHT22;10710;53.398;-1.514;2023-06-14T12:17:13;24.70;99.90
21104;DHT22;10710;53.398;-1.514;2023-06-14T12:20:12;24.60;99.90
21104;DHT22;10710;53.398;-1.514;2023-06-14T12:23:05;24.70;99.90
21104;DHT22;10710;53.398;-1.514;2023-06-14T12:25:50;25.00;99.90
21104;DHT22;10710;53.398;-1.514;2023-06-14T12:28:36;25.00;99.90
21104;DHT22;10710;53.398;-1.514;2023-06-14T12:31:20;25.00;99.90
21104;DHT22;10710;53.398;-1.514;2023-06-14T12:34:04;25.10;99.90
21104;DHT22;10710;53.398;-1.514;2023-06-14T12:36:49;25.00;99.90
21104;DHT22;10710;53.398;-1.514;2023-06-14T12:39:34;24.90;99.90
21104;DHT22;10710;53.398;-1.514;2023-06-14T12:42:18;25.00;99.90
21104;DHT22;10710;53.398;-1.514;2023-06-14T12:45:03;25.00;99.90
21104;DHT22;10710;53.398;-1.514;2023-06-14T12:47:48;25.10;99.90
21104;DHT22;10710;53.398;-1.514;2023-06-14T12:50:32;25.20;99.90
21104;DHT22;10710;53.398;-1.514;2023-06-14T12:53:16;25.10;99.80
21104;DHT22;10710;53.398;-1.514;2023-06-14T12:56:01;25.00;99.30
21104;DHT22;10710;53.398;-1.514;2023-06-14T12:58:45;25.00;99.90
21104;DHT22;10710;53.398;-1.514;2023-06-14T13:01:29;25.20;99.90
21104;DHT22;10710;53.398;-1.514;2023-06-14T13:04:13;25.40;99.90
21104;DHT22;10710;53.398;-1.514;2023-06-14T13:06:57;25.60;99.90
21104;DHT22;10710;53.398;-1.514;2023-06-14T13:09:42;25.80;99.90
21104;DHT22;10710;53.398;-1.514;2023-06-14T13:12:26;26.00;99.90
21104;DHT22;10710;53.398;-1.514;2023-06-14T13:15:10;26.30;99.90
21104;DHT22;10710;53.398;-1.514;2023-06-14T13:17:54;27.00;99.90
21104;DHT22;10710;53.398;-1.514;2023-06-14T13:20:39;28.10;99.50
21104;DHT22;10710;53.398;-1.514;2023-06-14T13:23:24;28.80;99.90
21104;DHT22;10710;53.398;-1.514;2023-06-14T13:26:09;29.50;97.70
21104;DHT22;10710;53.398;-1.514;2023-06-14T13:28:53;29.50;97.50
21104;DHT22;10710;53.398;-1.514;2023-06-14T13:31:37;29.40;97.60
21104;DHT22;10710;53.398;-1.514;2023-06-14T13:34:21;29.70;95.90
21104;DHT22;10710;53.398;-1.514;2023-06-14T13:37:06;29.90;98.80
21104;DHT22;10710;53.398;-1.514;2023-06-14T13:39:50;30.50;94.50
21104;DHT22;10710;53.398;-1.514;2023-06-14T13:42:34;30.90;94.10
21104;DHT22;10710;53.398;-1.514;2023-06-14T13:45:19;30.80;95.40
21104;DHT22;10710;53.398;-1.514;2023-06-14T13:48:03;31.20;94.70
21104;DHT22;10710;53.398;-1.514;2023-06-14T13:50:48;31.40;93.00
21104;DHT22;10710;53.398;-1.514;2023-06-14T13:53:33;31.70;93.70
21104;DHT22;10710;53.398;-1.514;2023-06-14T13:56:17;31.70;94.00
21104;DHT22;10710;53.398;-1.514;2023-06-14T13:59:01;32.20;92.50
21104;DHT22;10710;53.398;-1.514;2023-06-14T14:01:46;32.20;91.90
21104;DHT22;10710;53.398;-1.514;2023-06-14T14:04:31;32.30;92.80
21104;DHT22;10710;53.398;-1.514;2023-06-14T14:07:16;32.50;93.50
21104;DHT22;10710;53.398;-1.514;2023-06-14T14:10:00;32.30;92.60
21104;DHT22;10710;53.398;-1.514;2023-06-14T14:12:44;32.80;90.60
21104;DHT22;10710;53.398;-1.514;2023-06-14T14:15:29;32.50;92.20
21104;DHT22;10710;53.398;-1.514;2023-06-14T14:18:14;33.00;91.30
21104;DHT22;10710;53.398;-1.514;2023-06-14T14:20:59;33.90;91.80
21104;DHT22;10710;53.398;-1.514;2023-06-14T14:23:44;33.90;92.00
21104;DHT22;10710;53.398;-1.514;2023-06-14T14:26:29;34.10;86.50
21104;DHT22;10710;53.398;-1.514;2023-06-14T14:29:15;33.90;89.30
21104;DHT22;10710;53.398;-1.514;2023-06-14T14:31:59;34.00;88.50
21104;DHT22;10710;53.398;-1.514;2023-06-14T14:34:44;34.40;90.20
21104;DHT22;10710;53.398;-1.514;2023-06-14T14:37:29;35.00;88.20
21104;DHT22;10710;53.398;-1.514;2023-06-14T14:40:13;35.10;87.00
21104;DHT22;10710;53.398;-1.514;2023-06-14T14:42:57;34.70;88.10
21104;DHT22;10710;53.398;-1.514;2023-06-14T14:45:41;33.80;88.40
21104;DHT22;10710;53.398;-1.514;2023-06-14T14:48:25;33.70;87.80
21104;DHT22;10710;53.398;-1.514;2023-06-14T14:51:09;34.20;87.70
21104;DHT22;10710;53.398;-1.514;2023-06-14T14:53:53;34.60;84.50
21104;DHT22;10710;53.398;-1.514;2023-06-14T14:56:37;34.60;86.30
21104;DHT22;10710;53.398;-1.514;2023-06-14T14:59:22;35.00;82.20
21104;DHT22;10710;53.398;-1.514;2023-06-14T15:02:06;34.50;85.50
21104;DHT22;10710;53.398;-1.514;2023-06-14T15:04:51;34.70;85.10
21104;DHT22;10710;53.398;-1.514;2023-06-14T15:07:35;35.30;84.60
21104;DHT22;10710;53.398;-1.514;2023-06-14T15:10:20;35.10;86.50
21104;DHT22;10710;53.398;-1.514;2023-06-14T15:13:05;35.10;82.60
21104;DHT22;10710;53.398;-1.514;2023-06-14T15:15:49;35.80;81.50
21104;DHT22;10710;53.398;-1.514;2023-06-14T15:18:34;35.40;83.10
21104;DHT22;10710;53.398;-1.514;2023-06-14T15:21:18;35.70;80.60
21104;DHT22;10710;53.398;-1.514;2023-06-14T15:24:03;35.70;81.20
21104;DHT22;10710;53.398;-1.514;2023-06-14T15:26:48;35.60;81.50
21104;DHT22;10710;53.398;-1.514;2023-06-14T15:29:33;35.50;80.00
21104;DHT22;10710;53.398;-1.514;2023-06-14T15:32:17;36.00;80.00
21104;DHT22;10710;53.398;-1.514;2023-06-14T15:35:01;35.90;82.10
21104;DHT22;10710;53.398;-1.514;2023-06-14T15:37:47;35.90;82.40
21104;DHT22;10710;53.398;-1.514;2023-06-14T15:40:32;36.30;81.30
21104;DHT22;10710;53.398;-1.514;2023-06-14T15:43:16;36.40;79.30
21104;DHT22;10710;53.398;-1.514;2023-06-14T15:46:00;36.30;82.00
21104;DHT22;10710;53.398;-1.514;2023-06-14T15:48:45;36.70;81.50
21104;DHT22;10710;53.398;-1.514;2023-06-14T15:51:30;36.70;77.60
21104;DHT22;10710;53.398;-1.514;2023-06-14T15:54:14;36.30;80.30
21104;DHT22;10710;53.398;-1.514;2023-06-14T15:56:58;36.70;78.00
21104;DHT22;10710;53.398;-1.514;2023-06-14T15:59:42;36.10;80.70
21104;DHT22;10710;53.398;-1.514;2023-06-14T16:02:27;36.10;79.60
21104;DHT22;10710;53.398;-1.514;2023-06-14T16:05:12;36.20;77.10
21104;DHT22;10710;53.398;-1.514;2023-06-14T16:07:57;36.90;78.10
21104;DHT22;10710;53.398;-1.514;2023-06-14T16:10:41;36.00;77.70
21104;DHT22;10710;53.398;-1.514;2023-06-14T16:13:26;35.40;80.60
21104;DHT22;10710;53.398;-1.514;2023-06-14T16:16:10;35.40;79.90
21104;DHT22;10710;53.398;-1.514;2023-06-14T16:18:54;35.40;80.60
21104;DHT22;10710;53.398;-1.514;2023-06-14T16:21:38;35.60;77.80
21104;DHT22;10710;53.398;-1.514;2023-06-14T16:24:22;35.90;78.00
21104;DHT22;10710;53.398;-1.514;2023-06-14T16:27:06;36.70;76.60
21104;DHT22;10710;53.398;-1.514;2023-06-14T16:29:52;36.20;79.70
21104;DHT22;10710;53.398;-1.514;2023-06-14T16:32:36;36.00;77.70
21104;DHT22;10710;53.398;-1.514;2023-06-14T16:35:21;36.50;78.20
21104;DHT22;10710;53.398;-1.514;2023-06-14T16:38:05;36.60;77.90
21104;DHT22;10710;53.398;-1.514;2023-06-14T16:40:49;36.30;78.60
21104;DHT22;10710;53.398;-1.514;2023-06-14T16:43:33;36.60;76.70
21104;DHT22;10710;53.398;-1.514;2023-06-14T16:46:28;36.70;75.30
21104;DHT22;10710;53.398;-1.514;2023-06-14T16:49:14;37.10;77.10
21104;DHT22;10710;53.398;-1.514;2023-06-14T16:51:58;37.00;74.40
21104;DHT22;10710;53.398;-1.514;2023-06-14T16:54:42;36.60;76.40
21104;DHT22;10710;53.398;-1.514;2023-06-14T16:57:26;36.40;77.00
21104;DHT22;10710;53.398;-1.514;2023-06-14T17:00:11;36.40;76.90
21104;DHT22;10710;53.398;-1.514;2023-06-14T17:02:55;37.00;78.00
21104;DHT22;10710;53.398;-1.514;2023-06-14T17:05:54;36.80;75.20
21104;DHT22;10710;53.398;-1.514;2023-06-14T17:08:38;35.90;78.40
21104;DHT22;10710;53.398;-1.514;2023-06-14T17:11:22;35.10;78.90
21104;DHT22;10710;53.398;-1.514;2023-06-14T17:14:07;34.60;80.60
21104;DHT22;10710;53.398;-1.514;2023-06-14T17:16:51;35.00;80.40
21104;DHT22;10710;53.398;-1.514;2023-06-14T17:19:35;35.00;81.10
21104;DHT22;10710;53.398;-1.514;2023-06-14T17:22:20;35.10;82.00
21104;DHT22;10710;53.398;-1.514;2023-06-14T17:25:05;35.50;82.10
21104;DHT22;10710;53.398;-1.514;2023-06-14T20:35:14;20.90;99.90
21104;DHT22;10710;53.398;-1.514;2023-06-14T20:37:59;20.90;99.90
21104;DHT22;10710;53.398;-1.514;2023-06-14T20:40:46;20.90;99.90
21104;DHT22;10710;53.398;-1.514;2023-06-14T20:43:32;20.70;99.90
21104;DHT22;10710;53.398;-1.514;2023-06-14T20:46:19;20.70;99.90
21104;DHT22;10710;53.398;-1.514;2023-06-14T20:49:04;20.60;99.90
21104;DHT22;10710;53.398;-1.514;2023-06-14T20:51:48;20.40;99.90
21104;DHT22;10710;53.398;-1.514;2023-06-14T20:54:37;20.40;99.90
21104;DHT22;10710;53.398;-1.514;2023-06-14T20:57:23;20.40;99.90
21104;DHT22;10710;53.398;-1.514;2023-06-14T21:00:08;20.20;99.90
21104;DHT22;10710;53.398;-1.514;2023-06-14T21:02:55;20.10;99.90
21104;DHT22;10710;53.398;-1.514;2023-06-14T21:05:40;20.10;99.90
21104;DHT22;10710;53.398;-1.514;2023-06-14T21:08:26;20.20;99.90
21104;DHT22;10710;53.398;-1.514;2023-06-14T21:11:10;20.10;99.90
21104;DHT22;10710;53.398;-1.514;2023-06-14T21:13:54;19.90;99.90
21104;DHT22;10710;53.398;-1.514;2023-06-14T21:16:38;20.00;99.90
21104;DHT22;10710;53.398;-1.514;2023-06-14T21:19:23;19.90;99.90
21104;DHT22;10710;53.398;-1.514;2023-06-14T21:22:07;19.70;99.90
21104;DHT22;10710;53.398;-1.514;2023-06-14T21:24:54;19.70;99.90
21104;DHT22;10710;53.398;-1.514;2023-06-14T21:27:39;19.80;99.90
21104;DHT22;10710;53.398;-1.514;2023-06-14T21:30:36;19.80;99.90
21104;DHT22;10710;53.398;-1.514;2023-06-14T21:33:20;19.70;99.90
21104;DHT22;10710;53.398;-1.514;2023-06-14T21:36:05;19.60;99.90
21104;DHT22;10710;53.398;-1.514;2023-06-14T21:38:50;19.50;99.90
21104;DHT22;10710;53.398;-1.514;2023-06-14T21:41:34;19.40;99.90
21104;DHT22;10710;53.398;-1.514;2023-06-14T21:44:21;19.40;99.90
21104;DHT22;10710;53.398;-1.514;2023-06-14T21:47:06;19.40;99.90
21104;DHT22;10710;53.398;-1.514;2023-06-14T21:49:50;19.20;99.90
21104;DHT22;10710;53.398;-1.514;2023-06-14T21:52:35;19.10;99.90
21104;DHT22;10710;53.398;-1.514;2023-06-14T21:55:20;19.10;99.90
21104;DHT22;10710;53.398;-1.514;2023-06-14T21:58:07;18.90;99.90
21104;DHT22;10710;53.398;-1.514;2023-06-14T22:00:52;18.80;99.90
21104;DHT22;10710;53.398;-1.514;2023-06-14T22:03:36;18.80;99.90
21104;DHT22;10710;53.398;-1.514;2023-06-14T22:06:20;18.70;99.90
21104;DHT22;10710;53.398;-1.514;2023-06-14T22:09:05;18.70;99.90
21104;DHT22;10710;53.398;-1.514;2023-06-14T22:11:49;18.60;99.90
21104;DHT22;10710;53.398;-1.514;2023-06-14T22:14:34;18.50;99.90
21104;DHT22;10710;53.398;-1.514;2023-06-14T22:17:19;18.50;99.90
21104;DHT22;10710;53.398;-1.514;2023-06-14T22:20:08;18.40;99.90
21104;DHT22;10710;53.398;-1.514;2023-06-14T22:22:55;18.40;99.90
21104;DHT22;10710;53.398;-1.514;2023-06-14T22:25:41;18.20;99.90
21104;DHT22;10710;53.398;-1.514;2023-06-14T22:28:25;18.30;99.90
21104;DHT22;10710;53.398;-1.514;2023-06-14T22:31:11;18.30;99.90
21104;DHT22;10710;53.398;-1.514;2023-06-14T22:33:57;18.30;99.90
21104;DHT22;10710;53.398;-1.514;2023-06-14T22:36:42;18.40;99.90
21104;DHT22;10710;53.398;-1.514;2023-06-14T22:39:27;18.40;99.90
21104;DHT22;10710;53.398;-1.514;2023-06-14T22:42:11;18.20;99.90
21104;DHT22;10710;53.398;-1.514;2023-06-14T22:44:57;18.10;99.90
21104;DHT22;10710;53.398;-1.514;2023-06-14T22:47:44;18.10;99.90
21104;DHT22;10710;53.398;-1.514;2023-06-14T22:50:29;18.10;99.90
21104;DHT22;10710;53.398;-1.514;2023-06-14T22:53:14;18.10;99.90
21104;DHT22;10710;53.398;-1.514;2023-06-14T22:55:59;18.00;99.90